Current | Forecast
Updated: 3:30 PM +07 on April 27, 2018
Observed at Krasnoyarsk, Russia
Temperature 39°F
Windchill 30°F
Humidity 87%
Dew Point 36°F
Wind West at 18 mph
Wind Gust 29 mph
Pressure 30.15 in (Steady)
Conditions Light Rain Showers
Visibility 4.3 miles
UV 3 out of 16
Clouds Scattered Clouds (SCT) : 2800 ft
Yesterday's Maximum 64°F
Yesterday's Minimum 36°F approx.
Yesterday's Heating Degree Days 15 approx.
Sunrise5:09 AM +07
Sunset8:18 PM +07
Moon Rise4:38 PM +07
Moon Set4:49 AM +07
Moon PhaseMoon Phase
Waxing Gibbous
Raw METARMETAR UNKL 270830Z 28008G13MPS 7000 -SHRA SCT028CB 04/02 Q1021 R29/190060 NOSIG RMK QFE740


Monday
. High: 41° F.
Tuesday
. High: 44° F.
Wednesday
. High: 44° F.
Thursday
. High: 50° F.
Friday
. High: 57° F.
Saturday
. High: 64° F.
Sunday
. High: 68° F.
Monday
. High: 73° F.

Units: English | Metric

Find the Weather for any City, State or Zipcode, or Country:

U.S. State List | Severe Weather | Tropical Storms | Ski Conditions
United States | Canada | Central America | South America | Asia | Europe | Australia | Africa | Islands

Weather Underground

© Copyright 2018
The Weather Company, LLC